<?xml version="1.0" encoding="UTF-8" standalone="no" ?>
<gpx xmlns="http://www.topografix.com/GPX/1/1" xmlns:xsi="http://www.w3.org/2001/XMLSchema-instance" xsi:schemaLocation="http://www.topografix.com/GPX/1/1 http://www.topografix.com/GPX/1/1/gpx.xsd" version="1.1" creator="VisuGPX - https://www.visugpx.com">
  <metadata>
    <name>Nancray Sapinette </name>
  </metadata>
  <trk>
    <name><![CDATA[Nancray Sapinette_10/07/2025-21866099]]></name>
    <trkseg>
      <trkpt lat="47.2402" lon="6.18618">
        <ele>450</ele>
        <time>2025-07-10T16:09:33Z</time>
      </trkpt>
      <trkpt lat="47.24032" lon="6.18634">
        <ele>451</ele>
        <time>2025-07-10T16:09:55Z</time>
      </trkpt>
      <trkpt lat="47.24081" lon="6.1868">
        <ele>454</ele>
        <time>2025-07-10T16:11:12Z</time>
      </trkpt>
      <trkpt lat="47.24098" lon="6.18711">
        <ele>453</ele>
        <time>2025-07-10T16:11:48Z</time>
      </trkpt>
      <trkpt lat="47.24128" lon="6.18749">
        <ele>454</ele>
        <time>2025-07-10T16:12:41Z</time>
      </trkpt>
      <trkpt lat="47.24125" lon="6.18758">
        <ele>453</ele>
        <time>2025-07-10T16:12:50Z</time>
      </trkpt>
      <trkpt lat="47.24144" lon="6.18771">
        <ele>453</ele>
        <time>2025-07-10T16:13:18Z</time>
      </trkpt>
      <trkpt lat="47.24198" lon="6.18822">
        <ele>453</ele>
        <time>2025-07-10T16:14:44Z</time>
      </trkpt>
      <trkpt lat="47.24213" lon="6.18842">
        <ele>453</ele>
        <time>2025-07-10T16:15:11Z</time>
      </trkpt>
      <trkpt lat="47.24218" lon="6.18839">
        <ele>453</ele>
        <time>2025-07-10T16:15:18Z</time>
      </trkpt>
      <trkpt lat="47.24231" lon="6.18854">
        <ele>452</ele>
        <time>2025-07-10T16:15:40Z</time>
      </trkpt>
      <trkpt lat="47.24257" lon="6.18895">
        <ele>448</ele>
        <time>2025-07-10T16:16:31Z</time>
      </trkpt>
      <trkpt lat="47.24266" lon="6.18925">
        <ele>445</ele>
        <time>2025-07-10T16:17:00Z</time>
      </trkpt>
      <trkpt lat="47.24254" lon="6.19007">
        <ele>443</ele>
        <time>2025-07-10T16:18:16Z</time>
      </trkpt>
      <trkpt lat="47.24251" lon="6.19055">
        <ele>442</ele>
        <time>2025-07-10T16:19:00Z</time>
      </trkpt>
      <trkpt lat="47.24253" lon="6.19206">
        <ele>436</ele>
        <time>2025-07-10T16:21:17Z</time>
      </trkpt>
      <trkpt lat="47.2425" lon="6.19233">
        <ele>435</ele>
        <time>2025-07-10T16:21:42Z</time>
      </trkpt>
      <trkpt lat="47.24246" lon="6.19252">
        <ele>434</ele>
        <time>2025-07-10T16:22:00Z</time>
      </trkpt>
      <trkpt lat="47.2421" lon="6.19338">
        <ele>430</ele>
        <time>2025-07-10T16:23:31Z</time>
      </trkpt>
      <trkpt lat="47.24202" lon="6.19368">
        <ele>430</ele>
        <time>2025-07-10T16:24:01Z</time>
      </trkpt>
      <trkpt lat="47.24188" lon="6.19467">
        <ele>430</ele>
        <time>2025-07-10T16:25:32Z</time>
      </trkpt>
      <trkpt lat="47.24176" lon="6.19508">
        <ele>432</ele>
        <time>2025-07-10T16:26:13Z</time>
      </trkpt>
      <trkpt lat="47.24149" lon="6.19549">
        <ele>434</ele>
        <time>2025-07-10T16:27:04Z</time>
      </trkpt>
      <trkpt lat="47.24084" lon="6.19606">
        <ele>435</ele>
        <time>2025-07-10T16:28:45Z</time>
      </trkpt>
      <trkpt lat="47.24076" lon="6.19619">
        <ele>435</ele>
        <time>2025-07-10T16:29:01Z</time>
      </trkpt>
      <trkpt lat="47.24065" lon="6.19625">
        <ele>435</ele>
        <time>2025-07-10T16:29:17Z</time>
      </trkpt>
      <trkpt lat="47.24054" lon="6.19638">
        <ele>435</ele>
        <time>2025-07-10T16:29:36Z</time>
      </trkpt>
      <trkpt lat="47.23957" lon="6.19698">
        <ele>432</ele>
        <time>2025-07-10T16:31:56Z</time>
      </trkpt>
      <trkpt lat="47.23917" lon="6.19712">
        <ele>432</ele>
        <time>2025-07-10T16:32:51Z</time>
      </trkpt>
      <trkpt lat="47.239" lon="6.19727">
        <ele>433</ele>
        <time>2025-07-10T16:33:17Z</time>
      </trkpt>
      <trkpt lat="47.23852" lon="6.19756">
        <ele>434</ele>
        <time>2025-07-10T16:34:27Z</time>
      </trkpt>
      <trkpt lat="47.23809" lon="6.1981">
        <ele>436</ele>
        <time>2025-07-10T16:35:42Z</time>
      </trkpt>
      <trkpt lat="47.23769" lon="6.19891">
        <ele>435</ele>
        <time>2025-07-10T16:37:13Z</time>
      </trkpt>
      <trkpt lat="47.23763" lon="6.19895">
        <ele>435</ele>
        <time>2025-07-10T16:37:22Z</time>
      </trkpt>
      <trkpt lat="47.23759" lon="6.19917">
        <ele>434</ele>
        <time>2025-07-10T16:37:42Z</time>
      </trkpt>
      <trkpt lat="47.23741" lon="6.19949">
        <ele>434</ele>
        <time>2025-07-10T16:38:20Z</time>
      </trkpt>
      <trkpt lat="47.23697" lon="6.2006">
        <ele>432</ele>
        <time>2025-07-10T16:40:16Z</time>
      </trkpt>
      <trkpt lat="47.23683" lon="6.20086">
        <ele>432</ele>
        <time>2025-07-10T16:40:46Z</time>
      </trkpt>
      <trkpt lat="47.23661" lon="6.20114">
        <ele>433</ele>
        <time>2025-07-10T16:41:25Z</time>
      </trkpt>
      <trkpt lat="47.23655" lon="6.20132">
        <ele>433</ele>
        <time>2025-07-10T16:41:43Z</time>
      </trkpt>
      <trkpt lat="47.23657" lon="6.20152">
        <ele>433</ele>
        <time>2025-07-10T16:42:02Z</time>
      </trkpt>
      <trkpt lat="47.23659" lon="6.20137">
        <ele>433</ele>
        <time>2025-07-10T16:42:15Z</time>
      </trkpt>
      <trkpt lat="47.23656" lon="6.20124">
        <ele>433</ele>
        <time>2025-07-10T16:42:28Z</time>
      </trkpt>
      <trkpt lat="47.23651" lon="6.20127">
        <ele>433</ele>
        <time>2025-07-10T16:42:35Z</time>
      </trkpt>
      <trkpt lat="47.23659" lon="6.20138">
        <ele>433</ele>
        <time>2025-07-10T16:42:50Z</time>
      </trkpt>
      <trkpt lat="47.23659" lon="6.20158">
        <ele>433</ele>
        <time>2025-07-10T16:43:08Z</time>
      </trkpt>
      <trkpt lat="47.23649" lon="6.2013">
        <ele>433</ele>
        <time>2025-07-10T16:43:37Z</time>
      </trkpt>
      <trkpt lat="47.23652" lon="6.20142">
        <ele>433</ele>
        <time>2025-07-10T16:43:48Z</time>
      </trkpt>
      <trkpt lat="47.23649" lon="6.20214">
        <ele>434</ele>
        <time>2025-07-10T16:44:53Z</time>
      </trkpt>
      <trkpt lat="47.23637" lon="6.2025">
        <ele>435</ele>
        <time>2025-07-10T16:45:30Z</time>
      </trkpt>
      <trkpt lat="47.23625" lon="6.20312">
        <ele>437</ele>
        <time>2025-07-10T16:46:28Z</time>
      </trkpt>
      <trkpt lat="47.23615" lon="6.20332">
        <ele>437</ele>
        <time>2025-07-10T16:46:51Z</time>
      </trkpt>
      <trkpt lat="47.23607" lon="6.2038">
        <ele>437</ele>
        <time>2025-07-10T16:47:35Z</time>
      </trkpt>
      <trkpt lat="47.23588" lon="6.20411">
        <ele>437</ele>
        <time>2025-07-10T16:48:13Z</time>
      </trkpt>
      <trkpt lat="47.23559" lon="6.20444">
        <ele>437</ele>
        <time>2025-07-10T16:49:02Z</time>
      </trkpt>
      <trkpt lat="47.23538" lon="6.2049">
        <ele>437</ele>
        <time>2025-07-10T16:49:52Z</time>
      </trkpt>
      <trkpt lat="47.23521" lon="6.2051">
        <ele>438</ele>
        <time>2025-07-10T16:50:21Z</time>
      </trkpt>
      <trkpt lat="47.23481" lon="6.20576">
        <ele>436</ele>
        <time>2025-07-10T16:51:42Z</time>
      </trkpt>
      <trkpt lat="47.23455" lon="6.20611">
        <ele>436</ele>
        <time>2025-07-10T16:52:29Z</time>
      </trkpt>
      <trkpt lat="47.23444" lon="6.20636">
        <ele>435</ele>
        <time>2025-07-10T16:52:56Z</time>
      </trkpt>
      <trkpt lat="47.23419" lon="6.20672">
        <ele>434</ele>
        <time>2025-07-10T16:53:42Z</time>
      </trkpt>
      <trkpt lat="47.23396" lon="6.20695">
        <ele>431</ele>
        <time>2025-07-10T16:54:19Z</time>
      </trkpt>
      <trkpt lat="47.23377" lon="6.20727">
        <ele>429</ele>
        <time>2025-07-10T16:54:58Z</time>
      </trkpt>
      <trkpt lat="47.23366" lon="6.20735">
        <ele>428</ele>
        <time>2025-07-10T16:55:14Z</time>
      </trkpt>
      <trkpt lat="47.23359" lon="6.20729">
        <ele>428</ele>
        <time>2025-07-10T16:55:25Z</time>
      </trkpt>
      <trkpt lat="47.23366" lon="6.20715">
        <ele>429</ele>
        <time>2025-07-10T16:55:41Z</time>
      </trkpt>
      <trkpt lat="47.23364" lon="6.20697">
        <ele>430</ele>
        <time>2025-07-10T16:55:57Z</time>
      </trkpt>
      <trkpt lat="47.23369" lon="6.20696">
        <ele>430</ele>
        <time>2025-07-10T16:56:04Z</time>
      </trkpt>
      <trkpt lat="47.23368" lon="6.20687">
        <ele>431</ele>
        <time>2025-07-10T16:56:12Z</time>
      </trkpt>
      <trkpt lat="47.23359" lon="6.20678">
        <ele>431</ele>
        <time>2025-07-10T16:56:27Z</time>
      </trkpt>
      <trkpt lat="47.23327" lon="6.20615">
        <ele>433</ele>
        <time>2025-07-10T16:57:38Z</time>
      </trkpt>
      <trkpt lat="47.23311" lon="6.20606">
        <ele>433</ele>
        <time>2025-07-10T16:58:01Z</time>
      </trkpt>
      <trkpt lat="47.23286" lon="6.20561">
        <ele>434</ele>
        <time>2025-07-10T16:58:54Z</time>
      </trkpt>
      <trkpt lat="47.2326" lon="6.20541">
        <ele>434</ele>
        <time>2025-07-10T16:59:33Z</time>
      </trkpt>
      <trkpt lat="47.23254" lon="6.20541">
        <ele>434</ele>
        <time>2025-07-10T16:59:41Z</time>
      </trkpt>
      <trkpt lat="47.23214" lon="6.20514">
        <ele>434</ele>
        <time>2025-07-10T17:00:40Z</time>
      </trkpt>
      <trkpt lat="47.23191" lon="6.20492">
        <ele>433</ele>
        <time>2025-07-10T17:01:16Z</time>
      </trkpt>
      <trkpt lat="47.23192" lon="6.20495">
        <ele>433</ele>
        <time>2025-07-10T17:01:19Z</time>
      </trkpt>
      <trkpt lat="47.23176" lon="6.20486">
        <ele>433</ele>
        <time>2025-07-10T17:01:42Z</time>
      </trkpt>
      <trkpt lat="47.23179" lon="6.20481">
        <ele>433</ele>
        <time>2025-07-10T17:01:48Z</time>
      </trkpt>
      <trkpt lat="47.23177" lon="6.20475">
        <ele>434</ele>
        <time>2025-07-10T17:01:54Z</time>
      </trkpt>
      <trkpt lat="47.23099" lon="6.20446">
        <ele>432</ele>
        <time>2025-07-10T17:03:42Z</time>
      </trkpt>
      <trkpt lat="47.23093" lon="6.20435">
        <ele>432</ele>
        <time>2025-07-10T17:03:54Z</time>
      </trkpt>
      <trkpt lat="47.23093" lon="6.20417">
        <ele>432</ele>
        <time>2025-07-10T17:04:11Z</time>
      </trkpt>
      <trkpt lat="47.23087" lon="6.20418">
        <ele>432</ele>
        <time>2025-07-10T17:04:19Z</time>
      </trkpt>
      <trkpt lat="47.23081" lon="6.20395">
        <ele>432</ele>
        <time>2025-07-10T17:04:41Z</time>
      </trkpt>
      <trkpt lat="47.23081" lon="6.20401">
        <ele>432</ele>
        <time>2025-07-10T17:04:46Z</time>
      </trkpt>
      <trkpt lat="47.23071" lon="6.20404">
        <ele>432</ele>
        <time>2025-07-10T17:05:00Z</time>
      </trkpt>
      <trkpt lat="47.23063" lon="6.20418">
        <ele>432</ele>
        <time>2025-07-10T17:05:17Z</time>
      </trkpt>
      <trkpt lat="47.23028" lon="6.204">
        <ele>431</ele>
        <time>2025-07-10T17:06:06Z</time>
      </trkpt>
      <trkpt lat="47.23005" lon="6.20399">
        <ele>431</ele>
        <time>2025-07-10T17:06:37Z</time>
      </trkpt>
      <trkpt lat="47.22988" lon="6.20391">
        <ele>431</ele>
        <time>2025-07-10T17:07:01Z</time>
      </trkpt>
      <trkpt lat="47.2298" lon="6.20392">
        <ele>432</ele>
        <time>2025-07-10T17:07:11Z</time>
      </trkpt>
      <trkpt lat="47.22961" lon="6.2038">
        <ele>432</ele>
        <time>2025-07-10T17:07:39Z</time>
      </trkpt>
      <trkpt lat="47.22953" lon="6.20364">
        <ele>433</ele>
        <time>2025-07-10T17:07:57Z</time>
      </trkpt>
      <trkpt lat="47.22947" lon="6.20363">
        <ele>433</ele>
        <time>2025-07-10T17:08:05Z</time>
      </trkpt>
      <trkpt lat="47.22937" lon="6.20348">
        <ele>433</ele>
        <time>2025-07-10T17:08:24Z</time>
      </trkpt>
      <trkpt lat="47.22931" lon="6.20346">
        <ele>433</ele>
        <time>2025-07-10T17:08:32Z</time>
      </trkpt>
      <trkpt lat="47.22918" lon="6.20303">
        <ele>435</ele>
        <time>2025-07-10T17:09:15Z</time>
      </trkpt>
      <trkpt lat="47.22896" lon="6.20269">
        <ele>435</ele>
        <time>2025-07-10T17:09:57Z</time>
      </trkpt>
      <trkpt lat="47.2288" lon="6.20234">
        <ele>436</ele>
        <time>2025-07-10T17:10:36Z</time>
      </trkpt>
      <trkpt lat="47.22845" lon="6.20216">
        <ele>437</ele>
        <time>2025-07-10T17:11:25Z</time>
      </trkpt>
      <trkpt lat="47.22815" lon="6.20191">
        <ele>437</ele>
        <time>2025-07-10T17:12:11Z</time>
      </trkpt>
      <trkpt lat="47.22798" lon="6.2016">
        <ele>437</ele>
        <time>2025-07-10T17:12:47Z</time>
      </trkpt>
      <trkpt lat="47.22774" lon="6.20133">
        <ele>437</ele>
        <time>2025-07-10T17:13:28Z</time>
      </trkpt>
      <trkpt lat="47.22775" lon="6.20125">
        <ele>437</ele>
        <time>2025-07-10T17:13:35Z</time>
      </trkpt>
      <trkpt lat="47.2278" lon="6.20135">
        <ele>437</ele>
        <time>2025-07-10T17:13:46Z</time>
      </trkpt>
      <trkpt lat="47.22777" lon="6.20139">
        <ele>437</ele>
        <time>2025-07-10T17:13:52Z</time>
      </trkpt>
      <trkpt lat="47.22774" lon="6.20108">
        <ele>437</ele>
        <time>2025-07-10T17:14:20Z</time>
      </trkpt>
      <trkpt lat="47.22752" lon="6.20061">
        <ele>438</ele>
        <time>2025-07-10T17:15:12Z</time>
      </trkpt>
      <trkpt lat="47.22743" lon="6.20053">
        <ele>438</ele>
        <time>2025-07-10T17:15:26Z</time>
      </trkpt>
      <trkpt lat="47.22745" lon="6.20033">
        <ele>438</ele>
        <time>2025-07-10T17:15:44Z</time>
      </trkpt>
      <trkpt lat="47.22738" lon="6.20034">
        <ele>439</ele>
        <time>2025-07-10T17:15:53Z</time>
      </trkpt>
      <trkpt lat="47.22729" lon="6.20023">
        <ele>439</ele>
        <time>2025-07-10T17:16:09Z</time>
      </trkpt>
      <trkpt lat="47.2273" lon="6.20007">
        <ele>440</ele>
        <time>2025-07-10T17:16:24Z</time>
      </trkpt>
      <trkpt lat="47.22722" lon="6.20002">
        <ele>440</ele>
        <time>2025-07-10T17:16:35Z</time>
      </trkpt>
      <trkpt lat="47.22726" lon="6.19993">
        <ele>440</ele>
        <time>2025-07-10T17:16:45Z</time>
      </trkpt>
      <trkpt lat="47.22722" lon="6.19968">
        <ele>440</ele>
        <time>2025-07-10T17:17:08Z</time>
      </trkpt>
      <trkpt lat="47.22723" lon="6.19986">
        <ele>440</ele>
        <time>2025-07-10T17:17:25Z</time>
      </trkpt>
      <trkpt lat="47.22705" lon="6.19941">
        <ele>440</ele>
        <time>2025-07-10T17:18:12Z</time>
      </trkpt>
      <trkpt lat="47.22691" lon="6.19926">
        <ele>441</ele>
        <time>2025-07-10T17:18:35Z</time>
      </trkpt>
      <trkpt lat="47.22678" lon="6.19899">
        <ele>441</ele>
        <time>2025-07-10T17:19:05Z</time>
      </trkpt>
      <trkpt lat="47.22678" lon="6.1989">
        <ele>441</ele>
        <time>2025-07-10T17:19:13Z</time>
      </trkpt>
      <trkpt lat="47.22672" lon="6.19886">
        <ele>441</ele>
        <time>2025-07-10T17:19:22Z</time>
      </trkpt>
      <trkpt lat="47.22678" lon="6.19888">
        <ele>441</ele>
        <time>2025-07-10T17:19:30Z</time>
      </trkpt>
      <trkpt lat="47.22666" lon="6.19881">
        <ele>441</ele>
        <time>2025-07-10T17:19:47Z</time>
      </trkpt>
      <trkpt lat="47.22662" lon="6.19881">
        <ele>441</ele>
        <time>2025-07-10T17:19:53Z</time>
      </trkpt>
      <trkpt lat="47.2266" lon="6.19888">
        <ele>441</ele>
        <time>2025-07-10T17:20:00Z</time>
      </trkpt>
      <trkpt lat="47.22663" lon="6.19885">
        <ele>441</ele>
        <time>2025-07-10T17:20:05Z</time>
      </trkpt>
      <trkpt lat="47.22662" lon="6.19873">
        <ele>441</ele>
        <time>2025-07-10T17:20:15Z</time>
      </trkpt>
      <trkpt lat="47.22654" lon="6.19863">
        <ele>440</ele>
        <time>2025-07-10T17:20:29Z</time>
      </trkpt>
      <trkpt lat="47.22652" lon="6.1985">
        <ele>440</ele>
        <time>2025-07-10T17:20:42Z</time>
      </trkpt>
      <trkpt lat="47.22627" lon="6.19815">
        <ele>439</ele>
        <time>2025-07-10T17:21:28Z</time>
      </trkpt>
      <trkpt lat="47.2261" lon="6.19772">
        <ele>438</ele>
        <time>2025-07-10T17:22:13Z</time>
      </trkpt>
      <trkpt lat="47.22594" lon="6.19757">
        <ele>437</ele>
        <time>2025-07-10T17:22:38Z</time>
      </trkpt>
      <trkpt lat="47.22593" lon="6.19745">
        <ele>437</ele>
        <time>2025-07-10T17:22:49Z</time>
      </trkpt>
      <trkpt lat="47.22546" lon="6.19714">
        <ele>440</ele>
        <time>2025-07-10T17:23:58Z</time>
      </trkpt>
      <trkpt lat="47.22527" lon="6.19679">
        <ele>443</ele>
        <time>2025-07-10T17:24:38Z</time>
      </trkpt>
      <trkpt lat="47.22521" lon="6.19681">
        <ele>443</ele>
        <time>2025-07-10T17:24:46Z</time>
      </trkpt>
      <trkpt lat="47.22506" lon="6.19667">
        <ele>444</ele>
        <time>2025-07-10T17:25:10Z</time>
      </trkpt>
      <trkpt lat="47.22497" lon="6.19666">
        <ele>444</ele>
        <time>2025-07-10T17:25:22Z</time>
      </trkpt>
      <trkpt lat="47.22496" lon="6.19659">
        <ele>444</ele>
        <time>2025-07-10T17:25:29Z</time>
      </trkpt>
      <trkpt lat="47.22503" lon="6.19664">
        <ele>444</ele>
        <time>2025-07-10T17:25:39Z</time>
      </trkpt>
      <trkpt lat="47.22499" lon="6.1967">
        <ele>444</ele>
        <time>2025-07-10T17:25:47Z</time>
      </trkpt>
      <trkpt lat="47.22494" lon="6.19669">
        <ele>443</ele>
        <time>2025-07-10T17:25:53Z</time>
      </trkpt>
      <trkpt lat="47.22471" lon="6.19651">
        <ele>443</ele>
        <time>2025-07-10T17:26:28Z</time>
      </trkpt>
      <trkpt lat="47.22467" lon="6.19643">
        <ele>443</ele>
        <time>2025-07-10T17:26:37Z</time>
      </trkpt>
      <trkpt lat="47.22447" lon="6.19636">
        <ele>442</ele>
        <time>2025-07-10T17:27:05Z</time>
      </trkpt>
      <trkpt lat="47.22426" lon="6.19613">
        <ele>441</ele>
        <time>2025-07-10T17:27:40Z</time>
      </trkpt>
      <trkpt lat="47.2241" lon="6.19605">
        <ele>441</ele>
        <time>2025-07-10T17:28:02Z</time>
      </trkpt>
      <trkpt lat="47.22404" lon="6.19591">
        <ele>441</ele>
        <time>2025-07-10T17:28:17Z</time>
      </trkpt>
      <trkpt lat="47.22373" lon="6.1956">
        <ele>440</ele>
        <time>2025-07-10T17:29:07Z</time>
      </trkpt>
      <trkpt lat="47.22372" lon="6.19552">
        <ele>441</ele>
        <time>2025-07-10T17:29:14Z</time>
      </trkpt>
      <trkpt lat="47.22358" lon="6.19534">
        <ele>440</ele>
        <time>2025-07-10T17:29:39Z</time>
      </trkpt>
      <trkpt lat="47.22358" lon="6.19526">
        <ele>441</ele>
        <time>2025-07-10T17:29:47Z</time>
      </trkpt>
      <trkpt lat="47.22351" lon="6.19521">
        <ele>440</ele>
        <time>2025-07-10T17:29:57Z</time>
      </trkpt>
      <trkpt lat="47.22348" lon="6.1951">
        <ele>440</ele>
        <time>2025-07-10T17:30:08Z</time>
      </trkpt>
      <trkpt lat="47.22332" lon="6.19505">
        <ele>440</ele>
        <time>2025-07-10T17:30:29Z</time>
      </trkpt>
      <trkpt lat="47.22337" lon="6.195">
        <ele>440</ele>
        <time>2025-07-10T17:30:38Z</time>
      </trkpt>
      <trkpt lat="47.22326" lon="6.19495">
        <ele>440</ele>
        <time>2025-07-10T17:30:53Z</time>
      </trkpt>
      <trkpt lat="47.22312" lon="6.19471">
        <ele>438</ele>
        <time>2025-07-10T17:31:22Z</time>
      </trkpt>
      <trkpt lat="47.22274" lon="6.19445">
        <ele>435</ele>
        <time>2025-07-10T17:32:18Z</time>
      </trkpt>
      <trkpt lat="47.22236" lon="6.19429">
        <ele>433</ele>
        <time>2025-07-10T17:33:10Z</time>
      </trkpt>
      <trkpt lat="47.22233" lon="6.19417">
        <ele>433</ele>
        <time>2025-07-10T17:33:22Z</time>
      </trkpt>
      <trkpt lat="47.22217" lon="6.19423">
        <ele>434</ele>
        <time>2025-07-10T17:33:44Z</time>
      </trkpt>
      <trkpt lat="47.22189" lon="6.1941">
        <ele>435</ele>
        <time>2025-07-10T17:34:23Z</time>
      </trkpt>
      <trkpt lat="47.22164" lon="6.19381">
        <ele>436</ele>
        <time>2025-07-10T17:35:06Z</time>
      </trkpt>
      <trkpt lat="47.22142" lon="6.19375">
        <ele>436</ele>
        <time>2025-07-10T17:35:35Z</time>
      </trkpt>
      <trkpt lat="47.22101" lon="6.19344">
        <ele>437</ele>
        <time>2025-07-10T17:36:37Z</time>
      </trkpt>
      <trkpt lat="47.22062" lon="6.19292">
        <ele>438</ele>
        <time>2025-07-10T17:37:47Z</time>
      </trkpt>
      <trkpt lat="47.22016" lon="6.1924">
        <ele>438</ele>
        <time>2025-07-10T17:39:04Z</time>
      </trkpt>
      <trkpt lat="47.22004" lon="6.1921">
        <ele>437</ele>
        <time>2025-07-10T17:39:36Z</time>
      </trkpt>
      <trkpt lat="47.21989" lon="6.19187">
        <ele>437</ele>
        <time>2025-07-10T17:40:05Z</time>
      </trkpt>
      <trkpt lat="47.21978" lon="6.19195">
        <ele>438</ele>
        <time>2025-07-10T17:40:21Z</time>
      </trkpt>
      <trkpt lat="47.21933" lon="6.19265">
        <ele>438</ele>
        <time>2025-07-10T17:41:49Z</time>
      </trkpt>
      <trkpt lat="47.21893" lon="6.19302">
        <ele>439</ele>
        <time>2025-07-10T17:42:52Z</time>
      </trkpt>
      <trkpt lat="47.21888" lon="6.19318">
        <ele>439</ele>
        <time>2025-07-10T17:43:08Z</time>
      </trkpt>
      <trkpt lat="47.21876" lon="6.19323">
        <ele>439</ele>
        <time>2025-07-10T17:43:24Z</time>
      </trkpt>
      <trkpt lat="47.21858" lon="6.19342">
        <ele>440</ele>
        <time>2025-07-10T17:43:54Z</time>
      </trkpt>
      <trkpt lat="47.21822" lon="6.19397">
        <ele>445</ele>
        <time>2025-07-10T17:45:03Z</time>
      </trkpt>
      <trkpt lat="47.21789" lon="6.1943">
        <ele>449</ele>
        <time>2025-07-10T17:45:56Z</time>
      </trkpt>
      <trkpt lat="47.21795" lon="6.19432">
        <ele>449</ele>
        <time>2025-07-10T17:46:05Z</time>
      </trkpt>
      <trkpt lat="47.21749" lon="6.19485">
        <ele>453</ele>
        <time>2025-07-10T17:47:23Z</time>
      </trkpt>
      <trkpt lat="47.21755" lon="6.19481">
        <ele>453</ele>
        <time>2025-07-10T17:47:31Z</time>
      </trkpt>
      <trkpt lat="47.21754" lon="6.19487">
        <ele>453</ele>
        <time>2025-07-10T17:47:37Z</time>
      </trkpt>
      <trkpt lat="47.2175" lon="6.1948">
        <ele>453</ele>
        <time>2025-07-10T17:47:45Z</time>
      </trkpt>
      <trkpt lat="47.21748" lon="6.19486">
        <ele>453</ele>
        <time>2025-07-10T17:47:51Z</time>
      </trkpt>
      <trkpt lat="47.21749" lon="6.19483">
        <ele>453</ele>
        <time>2025-07-10T17:47:54Z</time>
      </trkpt>
      <trkpt lat="47.21742" lon="6.19483">
        <ele>453</ele>
        <time>2025-07-10T17:48:04Z</time>
      </trkpt>
      <trkpt lat="47.21746" lon="6.19485">
        <ele>453</ele>
        <time>2025-07-10T17:48:09Z</time>
      </trkpt>
      <trkpt lat="47.21746" lon="6.19495">
        <ele>453</ele>
        <time>2025-07-10T17:48:18Z</time>
      </trkpt>
      <trkpt lat="47.21713" lon="6.19529">
        <ele>452</ele>
        <time>2025-07-10T17:49:12Z</time>
      </trkpt>
      <trkpt lat="47.21675" lon="6.19585">
        <ele>450</ele>
        <time>2025-07-10T17:50:24Z</time>
      </trkpt>
      <trkpt lat="47.21651" lon="6.19595">
        <ele>449</ele>
        <time>2025-07-10T17:50:57Z</time>
      </trkpt>
      <trkpt lat="47.21636" lon="6.19608">
        <ele>448</ele>
        <time>2025-07-10T17:51:20Z</time>
      </trkpt>
      <trkpt lat="47.21623" lon="6.19638">
        <ele>447</ele>
        <time>2025-07-10T17:51:53Z</time>
      </trkpt>
      <trkpt lat="47.21561" lon="6.19717">
        <ele>447</ele>
        <time>2025-07-10T17:53:42Z</time>
      </trkpt>
      <trkpt lat="47.21553" lon="6.19734">
        <ele>448</ele>
        <time>2025-07-10T17:54:01Z</time>
      </trkpt>
      <trkpt lat="47.21528" lon="6.19764">
        <ele>449</ele>
        <time>2025-07-10T17:54:44Z</time>
      </trkpt>
      <trkpt lat="47.21522" lon="6.19779">
        <ele>449</ele>
        <time>2025-07-10T17:55:00Z</time>
      </trkpt>
      <trkpt lat="47.21495" lon="6.19802">
        <ele>451</ele>
        <time>2025-07-10T17:55:41Z</time>
      </trkpt>
      <trkpt lat="47.2149" lon="6.1982">
        <ele>451</ele>
        <time>2025-07-10T17:55:59Z</time>
      </trkpt>
      <trkpt lat="47.21493" lon="6.19834">
        <ele>451</ele>
        <time>2025-07-10T17:56:12Z</time>
      </trkpt>
      <trkpt lat="47.21471" lon="6.19843">
        <ele>450</ele>
        <time>2025-07-10T17:56:43Z</time>
      </trkpt>
      <trkpt lat="47.21465" lon="6.19855">
        <ele>450</ele>
        <time>2025-07-10T17:56:56Z</time>
      </trkpt>
      <trkpt lat="47.21457" lon="6.19859">
        <ele>450</ele>
        <time>2025-07-10T17:57:07Z</time>
      </trkpt>
      <trkpt lat="47.21442" lon="6.19877">
        <ele>449</ele>
        <time>2025-07-10T17:57:33Z</time>
      </trkpt>
      <trkpt lat="47.21439" lon="6.19884">
        <ele>449</ele>
        <time>2025-07-10T17:57:41Z</time>
      </trkpt>
      <trkpt lat="47.21443" lon="6.19891">
        <ele>449</ele>
        <time>2025-07-10T17:57:49Z</time>
      </trkpt>
      <trkpt lat="47.2146" lon="6.19907">
        <ele>449</ele>
        <time>2025-07-10T17:58:16Z</time>
      </trkpt>
      <trkpt lat="47.21477" lon="6.19916">
        <ele>449</ele>
        <time>2025-07-10T17:58:40Z</time>
      </trkpt>
      <trkpt lat="47.21489" lon="6.19931">
        <ele>448</ele>
        <time>2025-07-10T17:59:01Z</time>
      </trkpt>
      <trkpt lat="47.21502" lon="6.19929">
        <ele>448</ele>
        <time>2025-07-10T17:59:18Z</time>
      </trkpt>
      <trkpt lat="47.21552" lon="6.19969">
        <ele>447</ele>
        <time>2025-07-10T18:00:34Z</time>
      </trkpt>
      <trkpt lat="47.21576" lon="6.19982">
        <ele>448</ele>
        <time>2025-07-10T18:01:09Z</time>
      </trkpt>
      <trkpt lat="47.21563" lon="6.2002">
        <ele>447</ele>
        <time>2025-07-10T18:01:47Z</time>
      </trkpt>
      <trkpt lat="47.21555" lon="6.20027">
        <ele>447</ele>
        <time>2025-07-10T18:02:00Z</time>
      </trkpt>
      <trkpt lat="47.21554" lon="6.20069">
        <ele>447</ele>
        <time>2025-07-10T18:02:38Z</time>
      </trkpt>
      <trkpt lat="47.21527" lon="6.20203">
        <ele>450</ele>
        <time>2025-07-10T18:04:44Z</time>
      </trkpt>
      <trkpt lat="47.21513" lon="6.20254">
        <ele>451</ele>
        <time>2025-07-10T18:05:34Z</time>
      </trkpt>
      <trkpt lat="47.21514" lon="6.20269">
        <ele>451</ele>
        <time>2025-07-10T18:05:48Z</time>
      </trkpt>
      <trkpt lat="47.21504" lon="6.20307">
        <ele>450</ele>
        <time>2025-07-10T18:06:25Z</time>
      </trkpt>
      <trkpt lat="47.21507" lon="6.20318">
        <ele>450</ele>
        <time>2025-07-10T18:06:36Z</time>
      </trkpt>
      <trkpt lat="47.21558" lon="6.20337">
        <ele>452</ele>
        <time>2025-07-10T18:07:46Z</time>
      </trkpt>
      <trkpt lat="47.21587" lon="6.20343">
        <ele>453</ele>
        <time>2025-07-10T18:08:25Z</time>
      </trkpt>
      <trkpt lat="47.21639" lon="6.20367">
        <ele>454</ele>
        <time>2025-07-10T18:09:38Z</time>
      </trkpt>
      <trkpt lat="47.21649" lon="6.20378">
        <ele>454</ele>
        <time>2025-07-10T18:09:54Z</time>
      </trkpt>
      <trkpt lat="47.21665" lon="6.20422">
        <ele>454</ele>
        <time>2025-07-10T18:10:39Z</time>
      </trkpt>
      <trkpt lat="47.21674" lon="6.20435">
        <ele>455</ele>
        <time>2025-07-10T18:10:56Z</time>
      </trkpt>
      <trkpt lat="47.21699" lon="6.20427">
        <ele>455</ele>
        <time>2025-07-10T18:11:30Z</time>
      </trkpt>
      <trkpt lat="47.21738" lon="6.20426">
        <ele>456</ele>
        <time>2025-07-10T18:12:22Z</time>
      </trkpt>
      <trkpt lat="47.2176" lon="6.20448">
        <ele>456</ele>
        <time>2025-07-10T18:12:58Z</time>
      </trkpt>
      <trkpt lat="47.21794" lon="6.20461">
        <ele>455</ele>
        <time>2025-07-10T18:13:45Z</time>
      </trkpt>
      <trkpt lat="47.2185" lon="6.20506">
        <ele>455</ele>
        <time>2025-07-10T18:15:10Z</time>
      </trkpt>
      <trkpt lat="47.21877" lon="6.20515">
        <ele>454</ele>
        <time>2025-07-10T18:15:47Z</time>
      </trkpt>
      <trkpt lat="47.21948" lon="6.20558">
        <ele>453</ele>
        <time>2025-07-10T18:17:29Z</time>
      </trkpt>
      <trkpt lat="47.21985" lon="6.20596">
        <ele>452</ele>
        <time>2025-07-10T18:18:30Z</time>
      </trkpt>
      <trkpt lat="47.21991" lon="6.20607">
        <ele>452</ele>
        <time>2025-07-10T18:18:42Z</time>
      </trkpt>
      <trkpt lat="47.21989" lon="6.20605">
        <ele>452</ele>
        <time>2025-07-10T18:18:46Z</time>
      </trkpt>
      <trkpt lat="47.22" lon="6.20606">
        <ele>451</ele>
        <time>2025-07-10T18:19:00Z</time>
      </trkpt>
      <trkpt lat="47.22025" lon="6.20635">
        <ele>451</ele>
        <time>2025-07-10T18:19:43Z</time>
      </trkpt>
      <trkpt lat="47.22059" lon="6.20657">
        <ele>452</ele>
        <time>2025-07-10T18:20:32Z</time>
      </trkpt>
      <trkpt lat="47.22071" lon="6.20683">
        <ele>452</ele>
        <time>2025-07-10T18:21:01Z</time>
      </trkpt>
      <trkpt lat="47.22078" lon="6.20681">
        <ele>452</ele>
        <time>2025-07-10T18:21:10Z</time>
      </trkpt>
      <trkpt lat="47.22092" lon="6.20686">
        <ele>452</ele>
        <time>2025-07-10T18:21:30Z</time>
      </trkpt>
      <trkpt lat="47.22114" lon="6.20703">
        <ele>451</ele>
        <time>2025-07-10T18:22:03Z</time>
      </trkpt>
      <trkpt lat="47.22129" lon="6.20721">
        <ele>450</ele>
        <time>2025-07-10T18:22:29Z</time>
      </trkpt>
      <trkpt lat="47.22162" lon="6.20734">
        <ele>449</ele>
        <time>2025-07-10T18:23:14Z</time>
      </trkpt>
      <trkpt lat="47.2219" lon="6.20755">
        <ele>449</ele>
        <time>2025-07-10T18:23:56Z</time>
      </trkpt>
      <trkpt lat="47.22191" lon="6.20751">
        <ele>449</ele>
        <time>2025-07-10T18:24:00Z</time>
      </trkpt>
      <trkpt lat="47.22189" lon="6.20758">
        <ele>449</ele>
        <time>2025-07-10T18:24:07Z</time>
      </trkpt>
      <trkpt lat="47.22205" lon="6.2078">
        <ele>448</ele>
        <time>2025-07-10T18:24:36Z</time>
      </trkpt>
      <trkpt lat="47.22228" lon="6.20792">
        <ele>447</ele>
        <time>2025-07-10T18:25:09Z</time>
      </trkpt>
      <trkpt lat="47.2223" lon="6.2079">
        <ele>448</ele>
        <time>2025-07-10T18:25:12Z</time>
      </trkpt>
      <trkpt lat="47.22227" lon="6.20796">
        <ele>447</ele>
        <time>2025-07-10T18:25:19Z</time>
      </trkpt>
      <trkpt lat="47.22237" lon="6.20799">
        <ele>447</ele>
        <time>2025-07-10T18:25:32Z</time>
      </trkpt>
      <trkpt lat="47.22263" lon="6.20822">
        <ele>446</ele>
        <time>2025-07-10T18:26:13Z</time>
      </trkpt>
      <trkpt lat="47.22269" lon="6.20833">
        <ele>445</ele>
        <time>2025-07-10T18:26:25Z</time>
      </trkpt>
      <trkpt lat="47.22281" lon="6.20843">
        <ele>443</ele>
        <time>2025-07-10T18:26:44Z</time>
      </trkpt>
      <trkpt lat="47.22289" lon="6.20861">
        <ele>442</ele>
        <time>2025-07-10T18:27:03Z</time>
      </trkpt>
      <trkpt lat="47.22301" lon="6.20915">
        <ele>438</ele>
        <time>2025-07-10T18:27:55Z</time>
      </trkpt>
      <trkpt lat="47.22289" lon="6.20978">
        <ele>437</ele>
        <time>2025-07-10T18:28:54Z</time>
      </trkpt>
      <trkpt lat="47.22273" lon="6.21013">
        <ele>436</ele>
        <time>2025-07-10T18:29:32Z</time>
      </trkpt>
      <trkpt lat="47.22118" lon="6.21241">
        <ele>444</ele>
        <time>2025-07-10T18:34:25Z</time>
      </trkpt>
      <trkpt lat="47.22113" lon="6.21248">
        <ele>445</ele>
        <time>2025-07-10T18:34:34Z</time>
      </trkpt>
      <trkpt lat="47.2211" lon="6.21247">
        <ele>445</ele>
        <time>2025-07-10T18:34:38Z</time>
      </trkpt>
      <trkpt lat="47.22108" lon="6.21256">
        <ele>445</ele>
        <time>2025-07-10T18:34:47Z</time>
      </trkpt>
      <trkpt lat="47.22051" lon="6.21335">
        <ele>446</ele>
        <time>2025-07-10T18:36:31Z</time>
      </trkpt>
      <trkpt lat="47.22016" lon="6.21376">
        <ele>446</ele>
        <time>2025-07-10T18:37:31Z</time>
      </trkpt>
      <trkpt lat="47.21975" lon="6.21451">
        <ele>448</ele>
        <time>2025-07-10T18:38:58Z</time>
      </trkpt>
      <trkpt lat="47.21898" lon="6.21646">
        <ele>459</ele>
        <time>2025-07-10T18:42:22Z</time>
      </trkpt>
      <trkpt lat="47.2189" lon="6.21654">
        <ele>460</ele>
        <time>2025-07-10T18:42:35Z</time>
      </trkpt>
      <trkpt lat="47.21853" lon="6.21767">
        <ele>462</ele>
        <time>2025-07-10T18:44:29Z</time>
      </trkpt>
      <trkpt lat="47.21799" lon="6.219">
        <ele>465</ele>
        <time>2025-07-10T18:46:49Z</time>
      </trkpt>
      <trkpt lat="47.21793" lon="6.21918">
        <ele>466</ele>
        <time>2025-07-10T18:47:08Z</time>
      </trkpt>
      <trkpt lat="47.21797" lon="6.21922">
        <ele>466</ele>
        <time>2025-07-10T18:47:14Z</time>
      </trkpt>
      <trkpt lat="47.21789" lon="6.21934">
        <ele>467</ele>
        <time>2025-07-10T18:47:29Z</time>
      </trkpt>
      <trkpt lat="47.21773" lon="6.21979">
        <ele>468</ele>
        <time>2025-07-10T18:48:15Z</time>
      </trkpt>
      <trkpt lat="47.2176" lon="6.22171">
        <ele>471</ele>
        <time>2025-07-10T18:51:10Z</time>
      </trkpt>
      <trkpt lat="47.21736" lon="6.22232">
        <ele>472</ele>
        <time>2025-07-10T18:52:14Z</time>
      </trkpt>
      <trkpt lat="47.21734" lon="6.22256">
        <ele>472</ele>
        <time>2025-07-10T18:52:36Z</time>
      </trkpt>
      <trkpt lat="47.21714" lon="6.22283">
        <ele>473</ele>
        <time>2025-07-10T18:53:12Z</time>
      </trkpt>
      <trkpt lat="47.2168" lon="6.22276">
        <ele>474</ele>
        <time>2025-07-10T18:53:58Z</time>
      </trkpt>
      <trkpt lat="47.21673" lon="6.22263">
        <ele>474</ele>
        <time>2025-07-10T18:54:13Z</time>
      </trkpt>
      <trkpt lat="47.21676" lon="6.22269">
        <ele>474</ele>
        <time>2025-07-10T18:54:20Z</time>
      </trkpt>
      <trkpt lat="47.21682" lon="6.22264">
        <ele>474</ele>
        <time>2025-07-10T18:54:29Z</time>
      </trkpt>
      <trkpt lat="47.21688" lon="6.22265">
        <ele>474</ele>
        <time>2025-07-10T18:54:37Z</time>
      </trkpt>
      <trkpt lat="47.217" lon="6.2228">
        <ele>473</ele>
        <time>2025-07-10T18:54:58Z</time>
      </trkpt>
      <trkpt lat="47.21713" lon="6.22285">
        <ele>472</ele>
        <time>2025-07-10T18:55:16Z</time>
      </trkpt>
      <trkpt lat="47.21727" lon="6.22258">
        <ele>473</ele>
        <time>2025-07-10T18:55:47Z</time>
      </trkpt>
      <trkpt lat="47.21734" lon="6.22232">
        <ele>472</ele>
        <time>2025-07-10T18:56:12Z</time>
      </trkpt>
      <trkpt lat="47.21766" lon="6.22154">
        <ele>471</ele>
        <time>2025-07-10T18:57:35Z</time>
      </trkpt>
      <trkpt lat="47.21899" lon="6.21966">
        <ele>464</ele>
        <time>2025-07-10T19:01:41Z</time>
      </trkpt>
      <trkpt lat="47.2196" lon="6.21871">
        <ele>460</ele>
        <time>2025-07-10T19:03:39Z</time>
      </trkpt>
      <trkpt lat="47.22053" lon="6.21756">
        <ele>459</ele>
        <time>2025-07-10T19:06:21Z</time>
      </trkpt>
      <trkpt lat="47.2206" lon="6.21753">
        <ele>459</ele>
        <time>2025-07-10T19:06:31Z</time>
      </trkpt>
      <trkpt lat="47.22165" lon="6.21628">
        <ele>455</ele>
        <time>2025-07-10T19:09:31Z</time>
      </trkpt>
      <trkpt lat="47.22265" lon="6.21491">
        <ele>452</ele>
        <time>2025-07-10T19:12:34Z</time>
      </trkpt>
      <trkpt lat="47.22301" lon="6.21448">
        <ele>449</ele>
        <time>2025-07-10T19:13:36Z</time>
      </trkpt>
      <trkpt lat="47.22349" lon="6.21377">
        <ele>446</ele>
        <time>2025-07-10T19:15:06Z</time>
      </trkpt>
      <trkpt lat="47.22443" lon="6.21262">
        <ele>445</ele>
        <time>2025-07-10T19:17:49Z</time>
      </trkpt>
      <trkpt lat="47.22475" lon="6.21212">
        <ele>448</ele>
        <time>2025-07-10T19:18:52Z</time>
      </trkpt>
      <trkpt lat="47.22488" lon="6.21206">
        <ele>449</ele>
        <time>2025-07-10T19:19:10Z</time>
      </trkpt>
      <trkpt lat="47.2249" lon="6.21203">
        <ele>450</ele>
        <time>2025-07-10T19:19:14Z</time>
      </trkpt>
      <trkpt lat="47.22471" lon="6.21221">
        <ele>448</ele>
        <time>2025-07-10T19:19:44Z</time>
      </trkpt>
      <trkpt lat="47.22487" lon="6.21204">
        <ele>449</ele>
        <time>2025-07-10T19:20:10Z</time>
      </trkpt>
      <trkpt lat="47.22483" lon="6.21201">
        <ele>449</ele>
        <time>2025-07-10T19:20:16Z</time>
      </trkpt>
      <trkpt lat="47.22486" lon="6.21195">
        <ele>450</ele>
        <time>2025-07-10T19:20:23Z</time>
      </trkpt>
      <trkpt lat="47.22488" lon="6.2122">
        <ele>449</ele>
        <time>2025-07-10T19:20:46Z</time>
      </trkpt>
      <trkpt lat="47.22531" lon="6.21266">
        <ele>449</ele>
        <time>2025-07-10T19:21:57Z</time>
      </trkpt>
      <trkpt lat="47.22542" lon="6.21288">
        <ele>449</ele>
        <time>2025-07-10T19:22:21Z</time>
      </trkpt>
      <trkpt lat="47.22571" lon="6.21321">
        <ele>450</ele>
        <time>2025-07-10T19:23:10Z</time>
      </trkpt>
      <trkpt lat="47.22589" lon="6.21371">
        <ele>452</ele>
        <time>2025-07-10T19:24:02Z</time>
      </trkpt>
      <trkpt lat="47.22605" lon="6.21389">
        <ele>452</ele>
        <time>2025-07-10T19:24:28Z</time>
      </trkpt>
      <trkpt lat="47.2262" lon="6.21422">
        <ele>453</ele>
        <time>2025-07-10T19:25:04Z</time>
      </trkpt>
      <trkpt lat="47.22629" lon="6.21462">
        <ele>454</ele>
        <time>2025-07-10T19:25:43Z</time>
      </trkpt>
      <trkpt lat="47.22624" lon="6.21527">
        <ele>455</ele>
        <time>2025-07-10T19:26:42Z</time>
      </trkpt>
      <trkpt lat="47.22632" lon="6.21549">
        <ele>455</ele>
        <time>2025-07-10T19:27:04Z</time>
      </trkpt>
      <trkpt lat="47.22652" lon="6.21561">
        <ele>456</ele>
        <time>2025-07-10T19:27:33Z</time>
      </trkpt>
      <trkpt lat="47.22656" lon="6.2157">
        <ele>456</ele>
        <time>2025-07-10T19:27:43Z</time>
      </trkpt>
      <trkpt lat="47.22657" lon="6.21604">
        <ele>456</ele>
        <time>2025-07-10T19:28:14Z</time>
      </trkpt>
      <trkpt lat="47.22676" lon="6.21656">
        <ele>456</ele>
        <time>2025-07-10T19:29:07Z</time>
      </trkpt>
      <trkpt lat="47.22676" lon="6.21679">
        <ele>455</ele>
        <time>2025-07-10T19:29:28Z</time>
      </trkpt>
      <trkpt lat="47.22689" lon="6.21743">
        <ele>453</ele>
        <time>2025-07-10T19:30:29Z</time>
      </trkpt>
      <trkpt lat="47.22695" lon="6.21757">
        <ele>453</ele>
        <time>2025-07-10T19:30:44Z</time>
      </trkpt>
      <trkpt lat="47.22696" lon="6.21775">
        <ele>452</ele>
        <time>2025-07-10T19:31:00Z</time>
      </trkpt>
      <trkpt lat="47.22706" lon="6.21799">
        <ele>452</ele>
        <time>2025-07-10T19:31:26Z</time>
      </trkpt>
      <trkpt lat="47.22714" lon="6.21805">
        <ele>452</ele>
        <time>2025-07-10T19:31:38Z</time>
      </trkpt>
      <trkpt lat="47.22721" lon="6.21818">
        <ele>451</ele>
        <time>2025-07-10T19:31:53Z</time>
      </trkpt>
      <trkpt lat="47.22721" lon="6.21836">
        <ele>451</ele>
        <time>2025-07-10T19:32:09Z</time>
      </trkpt>
      <trkpt lat="47.22735" lon="6.21876">
        <ele>450</ele>
        <time>2025-07-10T19:32:50Z</time>
      </trkpt>
      <trkpt lat="47.22736" lon="6.21909">
        <ele>449</ele>
        <time>2025-07-10T19:33:20Z</time>
      </trkpt>
      <trkpt lat="47.22744" lon="6.21922">
        <ele>450</ele>
        <time>2025-07-10T19:33:36Z</time>
      </trkpt>
      <trkpt lat="47.22768" lon="6.21943">
        <ele>449</ele>
        <time>2025-07-10T19:34:13Z</time>
      </trkpt>
      <trkpt lat="47.22773" lon="6.2196">
        <ele>449</ele>
        <time>2025-07-10T19:34:30Z</time>
      </trkpt>
      <trkpt lat="47.22798" lon="6.21996">
        <ele>450</ele>
        <time>2025-07-10T19:35:16Z</time>
      </trkpt>
      <trkpt lat="47.22803" lon="6.22014">
        <ele>450</ele>
        <time>2025-07-10T19:35:34Z</time>
      </trkpt>
      <trkpt lat="47.22802" lon="6.22033">
        <ele>450</ele>
        <time>2025-07-10T19:35:51Z</time>
      </trkpt>
      <trkpt lat="47.22812" lon="6.2204">
        <ele>451</ele>
        <time>2025-07-10T19:36:06Z</time>
      </trkpt>
      <trkpt lat="47.22811" lon="6.22034">
        <ele>450</ele>
        <time>2025-07-10T19:36:12Z</time>
      </trkpt>
      <trkpt lat="47.22805" lon="6.22033">
        <ele>450</ele>
        <time>2025-07-10T19:36:20Z</time>
      </trkpt>
      <trkpt lat="47.22805" lon="6.22028">
        <ele>450</ele>
        <time>2025-07-10T19:36:24Z</time>
      </trkpt>
      <trkpt lat="47.22811" lon="6.22031">
        <ele>450</ele>
        <time>2025-07-10T19:36:33Z</time>
      </trkpt>
      <trkpt lat="47.22819" lon="6.2202">
        <ele>450</ele>
        <time>2025-07-10T19:36:47Z</time>
      </trkpt>
      <trkpt lat="47.22834" lon="6.22014">
        <ele>449</ele>
        <time>2025-07-10T19:37:08Z</time>
      </trkpt>
      <trkpt lat="47.22838" lon="6.22007">
        <ele>449</ele>
        <time>2025-07-10T19:37:16Z</time>
      </trkpt>
      <trkpt lat="47.22856" lon="6.21995">
        <ele>447</ele>
        <time>2025-07-10T19:37:43Z</time>
      </trkpt>
      <trkpt lat="47.22864" lon="6.21979">
        <ele>445</ele>
        <time>2025-07-10T19:38:01Z</time>
      </trkpt>
      <trkpt lat="47.22869" lon="6.21956">
        <ele>443</ele>
        <time>2025-07-10T19:38:23Z</time>
      </trkpt>
      <trkpt lat="47.22878" lon="6.21943">
        <ele>442</ele>
        <time>2025-07-10T19:38:39Z</time>
      </trkpt>
      <trkpt lat="47.22887" lon="6.21918">
        <ele>440</ele>
        <time>2025-07-10T19:39:05Z</time>
      </trkpt>
      <trkpt lat="47.22901" lon="6.21908">
        <ele>439</ele>
        <time>2025-07-10T19:39:26Z</time>
      </trkpt>
      <trkpt lat="47.22936" lon="6.21856">
        <ele>437</ele>
        <time>2025-07-10T19:40:32Z</time>
      </trkpt>
      <trkpt lat="47.22966" lon="6.21825">
        <ele>439</ele>
        <time>2025-07-10T19:41:21Z</time>
      </trkpt>
      <trkpt lat="47.22987" lon="6.21826">
        <ele>441</ele>
        <time>2025-07-10T19:41:49Z</time>
      </trkpt>
      <trkpt lat="47.22973" lon="6.21817">
        <ele>440</ele>
        <time>2025-07-10T19:42:09Z</time>
      </trkpt>
      <trkpt lat="47.2297" lon="6.21805">
        <ele>439</ele>
        <time>2025-07-10T19:42:21Z</time>
      </trkpt>
      <trkpt lat="47.22972" lon="6.217">
        <ele>437</ele>
        <time>2025-07-10T19:43:56Z</time>
      </trkpt>
      <trkpt lat="47.22964" lon="6.21648">
        <ele>436</ele>
        <time>2025-07-10T19:44:45Z</time>
      </trkpt>
      <trkpt lat="47.22953" lon="6.21617">
        <ele>436</ele>
        <time>2025-07-10T19:45:16Z</time>
      </trkpt>
      <trkpt lat="47.2293" lon="6.21578">
        <ele>438</ele>
        <time>2025-07-10T19:46:03Z</time>
      </trkpt>
      <trkpt lat="47.22918" lon="6.2154">
        <ele>438</ele>
        <time>2025-07-10T19:46:41Z</time>
      </trkpt>
      <trkpt lat="47.22909" lon="6.21494">
        <ele>437</ele>
        <time>2025-07-10T19:47:24Z</time>
      </trkpt>
      <trkpt lat="47.22889" lon="6.21427">
        <ele>436</ele>
        <time>2025-07-10T19:48:31Z</time>
      </trkpt>
      <trkpt lat="47.22886" lon="6.21407">
        <ele>436</ele>
        <time>2025-07-10T19:48:49Z</time>
      </trkpt>
      <trkpt lat="47.22892" lon="6.21396">
        <ele>436</ele>
        <time>2025-07-10T19:49:02Z</time>
      </trkpt>
      <trkpt lat="47.22883" lon="6.21367">
        <ele>438</ele>
        <time>2025-07-10T19:49:31Z</time>
      </trkpt>
      <trkpt lat="47.22892" lon="6.21345">
        <ele>438</ele>
        <time>2025-07-10T19:49:54Z</time>
      </trkpt>
      <trkpt lat="47.22924" lon="6.21302">
        <ele>439</ele>
        <time>2025-07-10T19:50:52Z</time>
      </trkpt>
      <trkpt lat="47.22929" lon="6.21296">
        <ele>440</ele>
        <time>2025-07-10T19:51:01Z</time>
      </trkpt>
      <trkpt lat="47.22934" lon="6.21299">
        <ele>439</ele>
        <time>2025-07-10T19:51:08Z</time>
      </trkpt>
      <trkpt lat="47.22939" lon="6.21281">
        <ele>440</ele>
        <time>2025-07-10T19:51:25Z</time>
      </trkpt>
      <trkpt lat="47.22954" lon="6.21261">
        <ele>441</ele>
        <time>2025-07-10T19:51:52Z</time>
      </trkpt>
      <trkpt lat="47.22965" lon="6.21231">
        <ele>441</ele>
        <time>2025-07-10T19:52:23Z</time>
      </trkpt>
      <trkpt lat="47.22972" lon="6.21149">
        <ele>439</ele>
        <time>2025-07-10T19:53:38Z</time>
      </trkpt>
      <trkpt lat="47.22974" lon="6.21098">
        <ele>434</ele>
        <time>2025-07-10T19:54:25Z</time>
      </trkpt>
      <trkpt lat="47.22971" lon="6.21098">
        <ele>434</ele>
        <time>2025-07-10T19:54:29Z</time>
      </trkpt>
      <trkpt lat="47.22979" lon="6.21089">
        <ele>433</ele>
        <time>2025-07-10T19:54:42Z</time>
      </trkpt>
      <trkpt lat="47.22978" lon="6.21046">
        <ele>431</ele>
        <time>2025-07-10T19:55:21Z</time>
      </trkpt>
      <trkpt lat="47.22982" lon="6.21005">
        <ele>430</ele>
        <time>2025-07-10T19:55:59Z</time>
      </trkpt>
      <trkpt lat="47.23004" lon="6.20924">
        <ele>427</ele>
        <time>2025-07-10T19:57:18Z</time>
      </trkpt>
      <trkpt lat="47.23008" lon="6.20927">
        <ele>427</ele>
        <time>2025-07-10T19:57:24Z</time>
      </trkpt>
      <trkpt lat="47.23001" lon="6.20931">
        <ele>427</ele>
        <time>2025-07-10T19:57:34Z</time>
      </trkpt>
      <trkpt lat="47.23003" lon="6.20927">
        <ele>427</ele>
        <time>2025-07-10T19:57:38Z</time>
      </trkpt>
      <trkpt lat="47.23011" lon="6.20926">
        <ele>427</ele>
        <time>2025-07-10T19:57:49Z</time>
      </trkpt>
      <trkpt lat="47.23018" lon="6.20912">
        <ele>426</ele>
        <time>2025-07-10T19:58:05Z</time>
      </trkpt>
      <trkpt lat="47.23031" lon="6.20934">
        <ele>426</ele>
        <time>2025-07-10T19:58:31Z</time>
      </trkpt>
      <trkpt lat="47.23048" lon="6.20948">
        <ele>426</ele>
        <time>2025-07-10T19:58:57Z</time>
      </trkpt>
      <trkpt lat="47.23065" lon="6.20953">
        <ele>425</ele>
        <time>2025-07-10T19:59:20Z</time>
      </trkpt>
      <trkpt lat="47.23085" lon="6.20977">
        <ele>425</ele>
        <time>2025-07-10T19:59:55Z</time>
      </trkpt>
      <trkpt lat="47.23107" lon="6.2099">
        <ele>425</ele>
        <time>2025-07-10T20:00:26Z</time>
      </trkpt>
      <trkpt lat="47.23185" lon="6.21014">
        <ele>425</ele>
        <time>2025-07-10T20:02:13Z</time>
      </trkpt>
      <trkpt lat="47.23243" lon="6.21016">
        <ele>425</ele>
        <time>2025-07-10T20:03:30Z</time>
      </trkpt>
      <trkpt lat="47.23287" lon="6.21029">
        <ele>425</ele>
        <time>2025-07-10T20:04:30Z</time>
      </trkpt>
      <trkpt lat="47.23303" lon="6.2103">
        <ele>425</ele>
        <time>2025-07-10T20:04:51Z</time>
      </trkpt>
      <trkpt lat="47.23338" lon="6.21043">
        <ele>425</ele>
        <time>2025-07-10T20:05:39Z</time>
      </trkpt>
      <trkpt lat="47.23413" lon="6.21087">
        <ele>425</ele>
        <time>2025-07-10T20:07:27Z</time>
      </trkpt>
      <trkpt lat="47.2344" lon="6.21098">
        <ele>425</ele>
        <time>2025-07-10T20:08:04Z</time>
      </trkpt>
      <trkpt lat="47.23446" lon="6.21098">
        <ele>426</ele>
        <time>2025-07-10T20:08:12Z</time>
      </trkpt>
      <trkpt lat="47.23452" lon="6.2108">
        <ele>425</ele>
        <time>2025-07-10T20:08:31Z</time>
      </trkpt>
      <trkpt lat="47.23484" lon="6.21047">
        <ele>425</ele>
        <time>2025-07-10T20:09:23Z</time>
      </trkpt>
      <trkpt lat="47.23516" lon="6.20994">
        <ele>423</ele>
        <time>2025-07-10T20:10:27Z</time>
      </trkpt>
      <trkpt lat="47.23524" lon="6.20988">
        <ele>423</ele>
        <time>2025-07-10T20:10:39Z</time>
      </trkpt>
      <trkpt lat="47.23548" lon="6.20938">
        <ele>424</ele>
        <time>2025-07-10T20:11:35Z</time>
      </trkpt>
      <trkpt lat="47.23546" lon="6.20932">
        <ele>424</ele>
        <time>2025-07-10T20:11:41Z</time>
      </trkpt>
      <trkpt lat="47.23552" lon="6.2094">
        <ele>424</ele>
        <time>2025-07-10T20:11:51Z</time>
      </trkpt>
      <trkpt lat="47.23548" lon="6.20945">
        <ele>424</ele>
        <time>2025-07-10T20:11:58Z</time>
      </trkpt>
      <trkpt lat="47.2355" lon="6.20952">
        <ele>424</ele>
        <time>2025-07-10T20:12:05Z</time>
      </trkpt>
      <trkpt lat="47.23602" lon="6.21054">
        <ele>423</ele>
        <time>2025-07-10T20:14:01Z</time>
      </trkpt>
      <trkpt lat="47.23618" lon="6.21099">
        <ele>422</ele>
        <time>2025-07-10T20:14:47Z</time>
      </trkpt>
      <trkpt lat="47.23632" lon="6.21126">
        <ele>422</ele>
        <time>2025-07-10T20:15:18Z</time>
      </trkpt>
      <trkpt lat="47.23648" lon="6.21194">
        <ele>421</ele>
        <time>2025-07-10T20:16:23Z</time>
      </trkpt>
      <trkpt lat="47.23667" lon="6.21229">
        <ele>421</ele>
        <time>2025-07-10T20:17:03Z</time>
      </trkpt>
      <trkpt lat="47.23676" lon="6.21221">
        <ele>421</ele>
        <time>2025-07-10T20:17:17Z</time>
      </trkpt>
      <trkpt lat="47.23694" lon="6.21185">
        <ele>422</ele>
        <time>2025-07-10T20:17:58Z</time>
      </trkpt>
      <trkpt lat="47.23712" lon="6.21166">
        <ele>423</ele>
        <time>2025-07-10T20:18:28Z</time>
      </trkpt>
      <trkpt lat="47.23717" lon="6.21174">
        <ele>423</ele>
        <time>2025-07-10T20:18:37Z</time>
      </trkpt>
      <trkpt lat="47.23723" lon="6.21156">
        <ele>424</ele>
        <time>2025-07-10T20:18:56Z</time>
      </trkpt>
      <trkpt lat="47.23741" lon="6.21137">
        <ele>427</ele>
        <time>2025-07-10T20:19:25Z</time>
      </trkpt>
      <trkpt lat="47.23746" lon="6.2112">
        <ele>428</ele>
        <time>2025-07-10T20:19:42Z</time>
      </trkpt>
      <trkpt lat="47.23798" lon="6.21063">
        <ele>434</ele>
        <time>2025-07-10T20:21:08Z</time>
      </trkpt>
      <trkpt lat="47.23805" lon="6.21048">
        <ele>435</ele>
        <time>2025-07-10T20:21:25Z</time>
      </trkpt>
      <trkpt lat="47.23823" lon="6.21031">
        <ele>436</ele>
        <time>2025-07-10T20:21:53Z</time>
      </trkpt>
      <trkpt lat="47.2384" lon="6.21006">
        <ele>437</ele>
        <time>2025-07-10T20:22:25Z</time>
      </trkpt>
      <trkpt lat="47.23851" lon="6.20997">
        <ele>437</ele>
        <time>2025-07-10T20:22:42Z</time>
      </trkpt>
      <trkpt lat="47.23856" lon="6.21002">
        <ele>437</ele>
        <time>2025-07-10T20:22:50Z</time>
      </trkpt>
      <trkpt lat="47.23907" lon="6.20936">
        <ele>437</ele>
        <time>2025-07-10T20:24:21Z</time>
      </trkpt>
      <trkpt lat="47.23933" lon="6.20911">
        <ele>437</ele>
        <time>2025-07-10T20:25:02Z</time>
      </trkpt>
      <trkpt lat="47.23941" lon="6.2091">
        <ele>437</ele>
        <time>2025-07-10T20:25:13Z</time>
      </trkpt>
      <trkpt lat="47.23966" lon="6.20878">
        <ele>437</ele>
        <time>2025-07-10T20:25:57Z</time>
      </trkpt>
      <trkpt lat="47.23997" lon="6.20848">
        <ele>436</ele>
        <time>2025-07-10T20:26:47Z</time>
      </trkpt>
      <trkpt lat="47.2403" lon="6.208">
        <ele>435</ele>
        <time>2025-07-10T20:27:49Z</time>
      </trkpt>
      <trkpt lat="47.24041" lon="6.20791">
        <ele>434</ele>
        <time>2025-07-10T20:28:05Z</time>
      </trkpt>
      <trkpt lat="47.24094" lon="6.20717">
        <ele>431</ele>
        <time>2025-07-10T20:29:43Z</time>
      </trkpt>
      <trkpt lat="47.24132" lon="6.20672">
        <ele>432</ele>
        <time>2025-07-10T20:30:48Z</time>
      </trkpt>
      <trkpt lat="47.24176" lon="6.206">
        <ele>434</ele>
        <time>2025-07-10T20:32:16Z</time>
      </trkpt>
      <trkpt lat="47.24176" lon="6.20606">
        <ele>433</ele>
        <time>2025-07-10T20:32:21Z</time>
      </trkpt>
      <trkpt lat="47.24183" lon="6.20611">
        <ele>433</ele>
        <time>2025-07-10T20:32:32Z</time>
      </trkpt>
      <trkpt lat="47.24196" lon="6.20589">
        <ele>434</ele>
        <time>2025-07-10T20:32:58Z</time>
      </trkpt>
      <trkpt lat="47.2422" lon="6.20565">
        <ele>433</ele>
        <time>2025-07-10T20:33:37Z</time>
      </trkpt>
      <trkpt lat="47.24225" lon="6.20547">
        <ele>433</ele>
        <time>2025-07-10T20:33:54Z</time>
      </trkpt>
      <trkpt lat="47.2427" lon="6.20499">
        <ele>431</ele>
        <time>2025-07-10T20:35:08Z</time>
      </trkpt>
      <trkpt lat="47.24327" lon="6.20468">
        <ele>431</ele>
        <time>2025-07-10T20:36:30Z</time>
      </trkpt>
      <trkpt lat="47.24345" lon="6.2045">
        <ele>432</ele>
        <time>2025-07-10T20:36:59Z</time>
      </trkpt>
      <trkpt lat="47.2437" lon="6.20438">
        <ele>434</ele>
        <time>2025-07-10T20:37:34Z</time>
      </trkpt>
      <trkpt lat="47.24377" lon="6.20428">
        <ele>435</ele>
        <time>2025-07-10T20:37:47Z</time>
      </trkpt>
      <trkpt lat="47.24393" lon="6.20386">
        <ele>436</ele>
        <time>2025-07-10T20:38:30Z</time>
      </trkpt>
      <trkpt lat="47.24403" lon="6.2034">
        <ele>437</ele>
        <time>2025-07-10T20:39:14Z</time>
      </trkpt>
      <trkpt lat="47.24444" lon="6.20239">
        <ele>438</ele>
        <time>2025-07-10T20:41:01Z</time>
      </trkpt>
      <trkpt lat="47.2445" lon="6.20237">
        <ele>439</ele>
        <time>2025-07-10T20:41:09Z</time>
      </trkpt>
      <trkpt lat="47.24454" lon="6.2023">
        <ele>439</ele>
        <time>2025-07-10T20:41:17Z</time>
      </trkpt>
      <trkpt lat="47.24485" lon="6.2013">
        <ele>443</ele>
        <time>2025-07-10T20:42:57Z</time>
      </trkpt>
      <trkpt lat="47.24489" lon="6.20126">
        <ele>443</ele>
        <time>2025-07-10T20:43:03Z</time>
      </trkpt>
      <trkpt lat="47.24494" lon="6.20131">
        <ele>444</ele>
        <time>2025-07-10T20:43:11Z</time>
      </trkpt>
      <trkpt lat="47.24489" lon="6.20124">
        <ele>443</ele>
        <time>2025-07-10T20:43:20Z</time>
      </trkpt>
      <trkpt lat="47.24488" lon="6.20127">
        <ele>443</ele>
        <time>2025-07-10T20:43:24Z</time>
      </trkpt>
      <trkpt lat="47.24492" lon="6.20109">
        <ele>444</ele>
        <time>2025-07-10T20:43:41Z</time>
      </trkpt>
      <trkpt lat="47.24497" lon="6.20104">
        <ele>444</ele>
        <time>2025-07-10T20:43:49Z</time>
      </trkpt>
      <trkpt lat="47.24509" lon="6.20048">
        <ele>443</ele>
        <time>2025-07-10T20:44:42Z</time>
      </trkpt>
      <trkpt lat="47.24549" lon="6.19929">
        <ele>442</ele>
        <time>2025-07-10T20:46:42Z</time>
      </trkpt>
      <trkpt lat="47.24589" lon="6.19851">
        <ele>440</ele>
        <time>2025-07-10T20:48:11Z</time>
      </trkpt>
      <trkpt lat="47.24623" lon="6.19759">
        <ele>442</ele>
        <time>2025-07-10T20:49:46Z</time>
      </trkpt>
      <trkpt lat="47.2461" lon="6.19689">
        <ele>445</ele>
        <time>2025-07-10T20:50:51Z</time>
      </trkpt>
      <trkpt lat="47.24613" lon="6.19662">
        <ele>446</ele>
        <time>2025-07-10T20:51:16Z</time>
      </trkpt>
      <trkpt lat="47.24608" lon="6.19622">
        <ele>446</ele>
        <time>2025-07-10T20:51:53Z</time>
      </trkpt>
      <trkpt lat="47.24613" lon="6.19619">
        <ele>446</ele>
        <time>2025-07-10T20:52:00Z</time>
      </trkpt>
      <trkpt lat="47.24604" lon="6.19601">
        <ele>445</ele>
        <time>2025-07-10T20:52:21Z</time>
      </trkpt>
      <trkpt lat="47.24592" lon="6.19529">
        <ele>446</ele>
        <time>2025-07-10T20:53:28Z</time>
      </trkpt>
      <trkpt lat="47.24568" lon="6.19446">
        <ele>445</ele>
        <time>2025-07-10T20:54:49Z</time>
      </trkpt>
      <trkpt lat="47.24566" lon="6.19419">
        <ele>444</ele>
        <time>2025-07-10T20:55:14Z</time>
      </trkpt>
      <trkpt lat="47.24547" lon="6.19365">
        <ele>444</ele>
        <time>2025-07-10T20:56:09Z</time>
      </trkpt>
      <trkpt lat="47.24522" lon="6.19214">
        <ele>439</ele>
        <time>2025-07-10T20:58:30Z</time>
      </trkpt>
      <trkpt lat="47.24508" lon="6.19162">
        <ele>436</ele>
        <time>2025-07-10T20:59:21Z</time>
      </trkpt>
      <trkpt lat="47.24503" lon="6.19112">
        <ele>433</ele>
        <time>2025-07-10T21:00:06Z</time>
      </trkpt>
      <trkpt lat="47.24507" lon="6.19113">
        <ele>433</ele>
        <time>2025-07-10T21:00:12Z</time>
      </trkpt>
      <trkpt lat="47.24502" lon="6.19101">
        <ele>432</ele>
        <time>2025-07-10T21:00:25Z</time>
      </trkpt>
      <trkpt lat="47.24497" lon="6.19033">
        <ele>428</ele>
        <time>2025-07-10T21:01:26Z</time>
      </trkpt>
      <trkpt lat="47.24488" lon="6.19015">
        <ele>427</ele>
        <time>2025-07-10T21:01:47Z</time>
      </trkpt>
      <trkpt lat="47.24485" lon="6.19029">
        <ele>428</ele>
        <time>2025-07-10T21:02:00Z</time>
      </trkpt>
      <trkpt lat="47.24461" lon="6.19027">
        <ele>430</ele>
        <time>2025-07-10T21:02:32Z</time>
      </trkpt>
      <trkpt lat="47.24399" lon="6.19">
        <ele>433</ele>
        <time>2025-07-10T21:03:58Z</time>
      </trkpt>
      <trkpt lat="47.24366" lon="6.18981">
        <ele>435</ele>
        <time>2025-07-10T21:04:46Z</time>
      </trkpt>
      <trkpt lat="47.24334" lon="6.18967">
        <ele>438</ele>
        <time>2025-07-10T21:05:30Z</time>
      </trkpt>
      <trkpt lat="47.24318" lon="6.18964">
        <ele>439</ele>
        <time>2025-07-10T21:05:52Z</time>
      </trkpt>
      <trkpt lat="47.2428" lon="6.18943">
        <ele>443</ele>
        <time>2025-07-10T21:06:46Z</time>
      </trkpt>
      <trkpt lat="47.24265" lon="6.18923">
        <ele>445</ele>
        <time>2025-07-10T21:07:13Z</time>
      </trkpt>
      <trkpt lat="47.24237" lon="6.18867">
        <ele>451</ele>
        <time>2025-07-10T21:08:16Z</time>
      </trkpt>
      <trkpt lat="47.24222" lon="6.18849">
        <ele>452</ele>
        <time>2025-07-10T21:08:42Z</time>
      </trkpt>
      <trkpt lat="47.24195" lon="6.18828">
        <ele>453</ele>
        <time>2025-07-10T21:09:22Z</time>
      </trkpt>
      <trkpt lat="47.24163" lon="6.18795">
        <ele>453</ele>
        <time>2025-07-10T21:10:15Z</time>
      </trkpt>
      <trkpt lat="47.24145" lon="6.18785">
        <ele>453</ele>
        <time>2025-07-10T21:10:40Z</time>
      </trkpt>
      <trkpt lat="47.24066" lon="6.18667">
        <ele>453</ele>
        <time>2025-07-10T21:13:10Z</time>
      </trkpt>
      <trkpt lat="47.2402" lon="6.18613">
        <ele>450</ele>
        <time>2025-07-10T21:14:29Z</time>
      </trkpt>
      <trkpt lat="47.2401" lon="6.18608">
        <ele>449</ele>
        <time>2025-07-10T21:14:43Z</time>
      </trkpt>
      <trkpt lat="47.23999" lon="6.18608">
        <ele>449</ele>
        <time>2025-07-10T21:14:58Z</time>
      </trkpt>
    </trkseg>
  </trk>
</gpx>